KSLE/SLE METAR and TAF weather

Enter ICAO airport designator
Station Type Date Time Source
KSLE METAR 2019/08/23 16:56 UTC NOAA

KSLE 231656Z 36006KT 10SM CLR 17/12 A2996 RMK AO2 SLP144 T01720117


Station Type Date Time Source
KSLE Decoded METAR 2019/08/23 16:56 UTC NOAA

Station name not available
Aug 23, 2019 - 12:56 PM EDT / 2019.08.23 1656 UTC
Wind: from the N (360 degrees) at 7 MPH (6 KT):0
Visibility: 10 mile(s):0
Sky conditions: clear
Temperature: 63.0 F (17.2 C)
Dew Point: 53.1 F (11.7 C)
Relative Humidity: 70%
Pressure (altimeter): 29.96 in. Hg (1014 hPa)
ob: KSLE 231656Z 36006KT 10SM CLR 17/12 A2996 RMK AO2 SLP144 T01720117
cycle: 17

Station Type Date Time Source
KSLE TAF 2019/08/23 18:39 UTC NOAA

TAF KSLE 231736Z 2318/2418 01006KT P6SM FEW250
FM232200 36008KT P6SM FEW250
FM240300 32007KT P6SM FEW250
FM241000 VRB02KT P6SM SCT250

Example: see airport list